createdAt,value
2018-06-16T00:02:26.819Z,95.60
2018-06-16T00:04:55.935Z,95.70
2018-06-16T00:07:24.947Z,95.70
2018-06-16T00:09:54.381Z,96.00
2018-06-16T00:12:23.359Z,96.60
2018-06-16T00:14:52.382Z,97.10
2018-06-16T00:17:21.364Z,97.40
2018-06-16T00:19:50.514Z,96.60
2018-06-16T00:22:19.549Z,98.30
2018-06-16T00:24:48.736Z,97.90
2018-06-16T00:27:17.795Z,97.40
2018-06-16T00:29:46.823Z,97.20
2018-06-16T00:32:15.853Z,97.20
2018-06-16T00:34:44.900Z,96.50
2018-06-16T00:37:13.975Z,96.20
2018-06-16T00:42:12.526Z,99.90
2018-06-16T00:44:41.688Z,99.90
2018-06-16T00:47:10.718Z,99.90
2018-06-16T00:49:39.990Z,99.90
2018-06-16T00:52:08.910Z,99.90
2018-06-16T00:54:37.939Z,99.00
2018-06-16T00:57:18.020Z,98.40
2018-06-16T00:59:47.075Z,98.30
2018-06-16T01:02:16.304Z,98.20
2018-06-16T01:04:45.563Z,98.30
2018-06-16T01:07:14.830Z,97.80
2018-06-16T01:09:43.919Z,97.30
2018-06-16T01:12:13.304Z,97.10
2018-06-16T01:14:42.348Z,97.50
2018-06-16T01:17:11.630Z,95.20
2018-06-16T01:19:41.349Z,99.60
2018-06-16T01:22:10.361Z,98.40
2018-06-16T01:24:39.399Z,98.90
2018-06-16T01:27:08.364Z,98.20
2018-06-16T01:29:37.418Z,98.20
2018-06-16T01:32:06.763Z,97.90
2018-06-16T01:34:35.920Z,98.10
2018-06-16T01:37:05.007Z,98.30
2018-06-16T01:39:34.136Z,99.90
2018-06-16T01:42:03.092Z,99.90
2018-06-16T01:44:32.259Z,99.90
2018-06-16T01:47:01.323Z,99.30
2018-06-16T01:49:30.467Z,96.40
2018-06-16T01:51:59.567Z,99.90
2018-06-16T01:54:28.590Z,99.00
2018-06-16T01:56:57.559Z,98.60
2018-06-16T01:59:26.590Z,98.90
2018-06-16T02:01:55.770Z,98.80
2018-06-16T02:04:24.917Z,99.40
2018-06-16T02:06:54.186Z,99.50
2018-06-16T02:09:23.459Z,98.90
2018-06-16T02:11:52.463Z,98.80
2018-06-16T02:14:21.538Z,98.80
2018-06-16T02:19:19.270Z,99.30
2018-06-16T02:21:48.627Z,99.40
2018-06-16T02:24:17.613Z,99.90
2018-06-16T02:26:46.577Z,99.90
2018-06-16T02:29:15.759Z,99.90
2018-06-16T02:31:44.793Z,99.90
2018-06-16T02:34:13.966Z,99.90
2018-06-16T02:36:43.095Z,99.90
2018-06-16T02:39:12.978Z,99.90
2018-06-16T02:41:42.052Z,99.90
2018-06-16T02:44:11.047Z,99.90
2018-06-16T02:46:40.125Z,99.90
2018-06-16T02:51:37.919Z,99.90
2018-06-16T02:54:07.215Z,99.90
2018-06-16T02:56:36.252Z,99.90
2018-06-16T02:59:05.239Z,99.90
2018-06-16T03:01:34.383Z,99.90
2018-06-16T03:04:03.415Z,99.90
2018-06-16T03:06:32.483Z,99.90
2018-06-16T03:09:01.576Z,99.90
2018-06-16T03:11:30.674Z,99.90
2018-06-16T03:13:59.687Z,99.90
2018-06-16T03:16:28.762Z,99.90
2018-06-16T03:18:57.912Z,99.90
2018-06-16T03:21:26.898Z,99.90
2018-06-16T03:23:55.931Z,99.90
2018-06-16T03:28:53.526Z,99.90
2018-06-16T03:31:22.489Z,99.90
2018-06-16T03:33:51.534Z,99.90
2018-06-16T03:36:20.551Z,99.90
2018-06-16T03:38:49.652Z,99.90
2018-06-16T03:41:18.665Z,99.90
2018-06-16T03:43:47.795Z,99.90
2018-06-16T03:46:16.863Z,99.90
2018-06-16T03:48:46.027Z,99.90
2018-06-16T03:51:15.151Z,99.90
2018-06-16T03:56:12.770Z,99.90
2018-06-16T03:58:41.805Z,99.90
2018-06-16T04:01:10.776Z,99.90
2018-06-16T04:03:40.008Z,99.90
2018-06-16T04:06:08.972Z,99.90
2018-06-16T04:08:38.115Z,99.90
2018-06-16T04:11:07.299Z,99.90
2018-06-16T04:13:36.343Z,99.90
2018-06-16T04:16:05.635Z,99.90
2018-06-16T04:18:34.631Z,99.90
2018-06-16T04:21:03.674Z,99.90
2018-06-16T04:23:32.788Z,99.90
2018-06-16T04:26:01.919Z,99.90
2018-06-16T04:28:31.181Z,99.90
2018-06-16T04:33:28.963Z,99.90
2018-06-16T04:35:58.114Z,99.90
2018-06-16T04:38:27.627Z,99.90
2018-06-16T04:40:56.896Z,99.90
2018-06-16T04:43:25.926Z,99.90
2018-06-16T04:45:54.955Z,99.90
2018-06-16T04:48:24.023Z,99.90
2018-06-16T04:50:53.146Z,99.90
2018-06-16T04:53:22.156Z,99.90
2018-06-16T04:55:51.318Z,99.90
2018-06-16T04:58:20.359Z,99.90
2018-06-16T05:00:49.361Z,99.90
2018-06-16T05:03:18.586Z,99.90
2018-06-16T05:05:47.691Z,99.90
2018-06-16T05:08:16.777Z,99.90
2018-06-16T05:10:45.889Z,99.90
2018-06-16T05:13:14.919Z,99.90
2018-06-16T05:15:43.860Z,99.90
2018-06-16T05:18:12.822Z,99.90
2018-06-16T05:20:41.765Z,99.90
2018-06-16T05:23:10.825Z,99.90
2018-06-16T05:25:39.861Z,99.90
2018-06-16T05:28:08.882Z,99.90
2018-06-16T05:30:37.949Z,99.90
2018-06-16T05:33:07.132Z,99.90
2018-06-16T05:35:36.131Z,99.90
2018-06-16T05:38:05.526Z,99.90
2018-06-16T05:40:34.563Z,99.90
2018-06-16T05:43:03.611Z,99.90
2018-06-16T05:45:32.887Z,99.90
2018-06-16T05:48:02.044Z,99.90
2018-06-16T05:50:31.147Z,99.90
2018-06-16T05:53:00.236Z,99.90
2018-06-16T05:55:29.426Z,99.90
2018-06-16T05:57:58.640Z,99.90
2018-06-16T06:00:27.817Z,99.90
2018-06-16T06:02:57.102Z,99.90
2018-06-16T06:05:26.371Z,99.90
2018-06-16T06:07:55.624Z,99.90
2018-06-16T06:10:24.735Z,98.00
2018-06-16T06:12:53.699Z,99.90
2018-06-16T06:17:51.396Z,99.90
2018-06-16T06:20:20.421Z,99.90
2018-06-16T06:22:49.501Z,99.90
2018-06-16T06:27:47.631Z,99.90
2018-06-16T06:30:17.755Z,98.10
2018-06-16T06:32:46.799Z,99.90
2018-06-16T06:35:15.887Z,99.90
2018-06-16T06:37:44.808Z,99.90
2018-06-16T06:40:13.929Z,99.00
2018-06-16T06:42:42.995Z,93.30
2018-06-16T06:45:11.986Z,96.00
2018-06-16T06:47:40.999Z,98.70
2018-06-16T06:50:10.007Z,99.90
2018-06-16T06:52:39.083Z,99.90
2018-06-16T06:55:08.115Z,98.90
2018-06-16T06:57:37.135Z,98.40
2018-06-16T07:00:06.360Z,93.90
2018-06-16T07:02:35.515Z,94.90
2018-06-16T07:05:04.837Z,93.10
2018-06-16T07:07:33.993Z,90.00
2018-06-16T07:10:03.088Z,91.40
2018-06-16T07:12:32.090Z,88.10
2018-06-16T07:17:29.940Z,93.50
2018-06-16T07:19:59.129Z,91.10
2018-06-16T07:22:28.238Z,90.40
2018-06-16T07:24:57.436Z,92.00
2018-06-16T07:27:26.745Z,93.70
2018-06-16T07:29:55.967Z,95.40
2018-06-16T07:32:24.993Z,92.60
2018-06-16T07:34:54.011Z,91.80
2018-06-16T07:37:23.167Z,94.90
2018-06-16T07:39:52.307Z,98.70
2018-06-16T07:42:21.495Z,99.30
2018-06-16T07:44:50.774Z,94.80
2018-06-16T07:47:19.793Z,94.00
2018-06-16T07:49:48.751Z,95.50
2018-06-16T07:52:17.878Z,96.10
2018-06-16T07:54:47.908Z,96.30
2018-06-16T07:57:16.971Z,99.90
2018-06-16T07:59:46.034Z,99.90
2018-06-16T08:02:15.205Z,97.80
2018-06-16T08:04:44.264Z,96.90
2018-06-16T08:07:13.261Z,95.40
2018-06-16T08:09:42.393Z,99.70
2018-06-16T08:12:11.356Z,94.30
2018-06-16T08:14:40.400Z,97.80
2018-06-16T08:17:09.358Z,93.50
2018-06-16T08:19:38.421Z,95.30
2018-06-16T08:22:07.375Z,93.50
2018-06-16T08:24:36.431Z,94.60
2018-06-16T08:27:05.381Z,93.70
2018-06-16T08:29:34.422Z,91.60
2018-06-16T08:32:03.404Z,94.60
2018-06-16T08:34:32.443Z,91.40
2018-06-16T08:37:01.440Z,92.10
2018-06-16T08:39:30.495Z,89.70
2018-06-16T08:41:59.643Z,81.70
2018-06-16T08:44:28.900Z,76.80
2018-06-16T08:46:57.968Z,80.00
2018-06-16T08:49:27.229Z,86.40
2018-06-16T08:51:56.292Z,79.60
2018-06-16T08:54:25.616Z,76.60
2018-06-16T08:56:54.774Z,78.10
2018-06-16T08:59:23.998Z,71.20
2018-06-16T09:01:52.888Z,72.10
2018-06-16T09:04:21.895Z,75.30
2018-06-16T09:06:51.152Z,71.90
2018-06-16T09:09:20.255Z,78.10
2018-06-16T09:11:49.214Z,79.00
2018-06-16T09:14:18.491Z,82.30
2018-06-16T09:16:47.531Z,81.10
2018-06-16T09:19:16.591Z,84.60
2018-06-16T09:21:45.723Z,86.40
2018-06-16T09:24:14.782Z,85.20
2018-06-16T09:26:43.810Z,91.80
2018-06-16T09:29:12.891Z,83.60
2018-06-16T09:31:42.009Z,92.40
2018-06-16T09:34:10.999Z,88.50
2018-06-16T09:36:40.088Z,80.00
2018-06-16T09:39:10.811Z,77.20
2018-06-16T09:41:40.040Z,74.20
2018-06-16T09:44:09.415Z,74.90
2018-06-16T09:46:38.499Z,76.40
2018-06-16T09:49:07.400Z,81.50
2018-06-16T09:51:36.599Z,84.40
2018-06-16T09:54:05.694Z,81.30
2018-06-16T09:56:34.716Z,78.30
2018-06-16T09:59:03.735Z,68.70
2018-06-16T10:01:32.775Z,76.20
2018-06-16T10:04:02.062Z,71.90
2018-06-16T10:06:31.022Z,64.40
2018-06-16T10:09:00.378Z,61.20
2018-06-16T10:11:29.360Z,64.40
2018-06-16T10:13:58.475Z,68.20
2018-06-16T10:18:56.312Z,63.70
2018-06-16T10:21:25.386Z,77.10
2018-06-16T10:23:54.406Z,70.80
2018-06-16T10:26:23.455Z,81.70
2018-06-16T10:28:52.641Z,82.40
2018-06-16T10:31:21.599Z,68.00
2018-06-16T10:33:50.932Z,69.20
2018-06-16T10:36:19.970Z,73.60
2018-06-16T10:38:48.950Z,66.00
2018-06-16T10:41:17.928Z,67.80
2018-06-16T10:43:47.119Z,62.80
2018-06-16T10:46:16.232Z,61.70
2018-06-16T10:48:45.305Z,63.50
2018-06-16T10:51:14.560Z,73.60
2018-06-16T10:53:43.568Z,68.50
2018-06-16T10:56:12.629Z,71.80
2018-06-16T10:58:41.660Z,67.60
2018-06-16T11:01:10.727Z,70.30
2018-06-16T11:03:39.803Z,73.30
2018-06-16T11:06:08.915Z,74.30
2018-06-16T11:08:37.943Z,72.40
2018-06-16T11:11:07.046Z,75.20
2018-06-16T11:13:36.190Z,84.70
2018-06-16T11:16:05.265Z,92.00
2018-06-16T11:18:34.362Z,79.70
2018-06-16T11:21:03.363Z,83.20
2018-06-16T11:23:32.354Z,69.40
2018-06-16T11:26:01.499Z,80.90
2018-06-16T11:28:30.665Z,74.50
2018-06-16T11:30:59.830Z,62.30
2018-06-16T11:33:28.892Z,71.90
2018-06-16T11:35:58.371Z,67.60
2018-06-16T11:38:27.539Z,82.50
2018-06-16T11:40:56.877Z,76.80
2018-06-16T11:43:25.966Z,71.50
2018-06-16T11:45:54.988Z,77.80
2018-06-16T11:48:23.929Z,74.60
2018-06-16T11:50:52.930Z,70.70
2018-06-16T11:53:21.957Z,79.50
2018-06-16T11:55:50.995Z,70.20
2018-06-16T11:58:20.056Z,68.70
2018-06-16T12:00:49.387Z,68.60
2018-06-16T12:03:18.428Z,66.30
2018-06-16T12:05:47.546Z,71.40
2018-06-16T12:08:16.619Z,70.40
2018-06-16T12:10:45.635Z,76.90
2018-06-16T12:13:14.647Z,81.90
2018-06-16T12:15:43.619Z,73.90
2018-06-16T12:18:12.632Z,66.90
2018-06-16T12:20:41.717Z,75.00
2018-06-16T12:23:10.894Z,68.60
2018-06-16T12:25:39.843Z,66.90
2018-06-16T12:28:08.862Z,71.20
2018-06-16T12:30:37.842Z,70.90
2018-06-16T12:33:06.878Z,68.60
2018-06-16T12:35:35.903Z,71.70
2018-06-16T12:38:04.986Z,69.40
2018-06-16T12:40:34.066Z,64.50
2018-06-16T12:43:03.255Z,61.20
2018-06-16T12:45:32.747Z,66.50
2018-06-16T12:48:02.011Z,67.30
2018-06-16T12:50:31.354Z,67.20
2018-06-16T12:53:00.520Z,73.10
2018-06-16T12:55:29.816Z,69.40
2018-06-16T12:57:58.867Z,63.10
2018-06-16T13:00:28.008Z,76.80
2018-06-16T13:02:57.178Z,65.70
2018-06-16T13:05:26.440Z,67.30
2018-06-16T13:07:55.558Z,68.90
2018-06-16T13:10:24.792Z,65.10
2018-06-16T13:15:22.571Z,62.30
2018-06-16T13:17:51.691Z,57.10
2018-06-16T13:20:20.554Z,62.10
2018-06-16T13:22:49.735Z,55.40
2018-06-16T13:25:18.846Z,55.10
2018-06-16T13:27:47.789Z,72.10
2018-06-16T13:30:17.503Z,65.90
2018-06-16T13:32:46.555Z,68.20
2018-06-16T13:35:15.806Z,62.60
2018-06-16T13:37:44.879Z,64.40
2018-06-16T13:40:14.151Z,68.30
2018-06-16T13:42:43.414Z,66.00
2018-06-16T13:45:12.414Z,62.50
2018-06-16T13:47:41.491Z,67.10
2018-06-16T13:50:10.627Z,61.20
2018-06-16T13:52:39.671Z,68.30
2018-06-16T13:55:08.727Z,61.00
2018-06-16T13:57:37.972Z,66.10
2018-06-16T14:00:07.191Z,63.60
2018-06-16T14:02:36.283Z,68.50
2018-06-16T14:05:05.283Z,67.60
2018-06-16T14:07:34.303Z,75.40
2018-06-16T14:10:03.396Z,76.50
2018-06-16T14:12:32.779Z,68.90
2018-06-16T14:15:01.863Z,66.40
2018-06-16T14:17:31.175Z,77.00
2018-06-16T14:20:00.220Z,64.90
2018-06-16T14:22:29.375Z,69.40
2018-06-16T14:25:02.296Z,63.80
2018-06-16T14:27:31.455Z,66.40
2018-06-16T14:30:00.747Z,70.10
2018-06-16T14:32:29.790Z,70.80
2018-06-16T14:34:59.100Z,66.20
2018-06-16T14:37:28.182Z,70.90
2018-06-16T14:40:00.829Z,65.90
2018-06-16T14:42:29.978Z,67.30
2018-06-16T14:44:59.122Z,66.00
2018-06-16T14:47:28.103Z,65.80
2018-06-16T14:49:57.139Z,66.60
2018-06-16T14:52:26.199Z,63.60
2018-06-16T14:54:55.480Z,58.90
2018-06-16T14:57:24.611Z,74.70
2018-06-16T14:59:53.751Z,67.40
2018-06-16T15:02:22.859Z,64.30
2018-06-16T15:04:51.915Z,61.70
2018-06-16T15:07:21.066Z,71.70
2018-06-16T15:09:50.191Z,69.20
2018-06-16T15:12:19.263Z,64.10
2018-06-16T15:14:48.348Z,64.40
2018-06-16T15:17:17.496Z,68.10
2018-06-16T15:22:15.250Z,60.40
2018-06-16T15:24:44.473Z,68.00
2018-06-16T15:27:13.722Z,69.80
2018-06-16T15:29:42.743Z,76.90
2018-06-16T15:32:11.798Z,73.60
2018-06-16T15:34:40.817Z,70.80
2018-06-16T15:37:09.866Z,61.40
2018-06-16T15:39:38.851Z,63.90
2018-06-16T15:42:08.011Z,67.10
2018-06-16T15:44:37.175Z,63.80
2018-06-16T15:47:06.215Z,68.70
2018-06-16T15:49:35.374Z,75.10
2018-06-16T15:52:04.519Z,71.50
2018-06-16T15:54:33.495Z,66.30
2018-06-16T15:57:02.529Z,72.40
2018-06-16T15:59:31.534Z,68.70
2018-06-16T16:02:00.578Z,67.50
2018-06-16T16:04:29.747Z,66.70
2018-06-16T16:06:58.879Z,60.20
2018-06-16T16:09:28.014Z,66.80
2018-06-16T16:11:57.167Z,84.90
2018-06-16T16:14:26.239Z,71.80
2018-06-16T16:16:55.531Z,76.70
2018-06-16T16:19:24.771Z,76.70
2018-06-16T16:21:53.782Z,73.90
2018-06-16T16:24:22.809Z,86.00
2018-06-16T16:26:51.755Z,96.70
2018-06-16T16:29:20.824Z,99.90
2018-06-16T16:31:49.791Z,99.60
2018-06-16T16:34:18.934Z,97.70
2018-06-16T16:36:47.903Z,99.90
2018-06-16T16:39:17.101Z,99.90
2018-06-16T16:41:46.324Z,99.90
2018-06-16T16:44:15.483Z,99.90
2018-06-16T16:46:44.651Z,99.90
2018-06-16T16:49:13.667Z,99.90
2018-06-16T16:51:42.626Z,99.90
2018-06-16T16:54:11.698Z,99.90
2018-06-16T16:56:40.766Z,99.90
2018-06-16T16:59:09.915Z,99.90
2018-06-16T17:01:39.024Z,99.90
2018-06-16T17:04:08.087Z,99.90
2018-06-16T17:06:37.074Z,99.90
2018-06-16T17:09:08.528Z,99.90
2018-06-16T17:11:37.551Z,99.90
2018-06-16T17:14:06.616Z,99.90
2018-06-16T17:16:35.564Z,99.90
2018-06-16T17:19:04.621Z,99.90
2018-06-16T17:21:33.727Z,99.90
2018-06-16T17:24:02.670Z,99.90
2018-06-16T17:26:31.762Z,99.90
2018-06-16T17:29:01.031Z,99.90
2018-06-16T17:31:30.285Z,99.90
2018-06-16T17:33:59.439Z,99.90
2018-06-16T17:36:28.590Z,99.90
2018-06-16T17:38:57.994Z,99.90
2018-06-16T17:41:27.127Z,99.90
2018-06-16T17:43:56.280Z,99.90
2018-06-16T17:46:25.412Z,99.90
2018-06-16T17:48:54.596Z,99.90
2018-06-16T17:51:23.935Z,98.30
2018-06-16T17:53:52.911Z,99.90
2018-06-16T17:56:21.926Z,99.20
2018-06-16T17:58:50.908Z,99.90
2018-06-16T18:01:19.955Z,99.90
2018-06-16T18:03:49.123Z,99.90
2018-06-16T18:06:18.415Z,99.90
2018-06-16T18:08:47.651Z,99.90
2018-06-16T18:11:16.646Z,99.90
2018-06-16T18:13:45.691Z,99.90
2018-06-16T18:16:14.661Z,99.90
2018-06-16T18:18:43.601Z,99.90
2018-06-16T18:21:12.687Z,99.90
2018-06-16T18:23:41.712Z,99.90
2018-06-16T18:28:40.435Z,99.90
2018-06-16T18:31:09.428Z,99.90
2018-06-16T18:33:38.466Z,99.90
2018-06-16T18:36:07.636Z,99.90
2018-06-16T18:38:36.699Z,99.90
2018-06-16T18:41:05.853Z,99.90
2018-06-16T18:43:41.444Z,99.90
2018-06-16T18:46:10.520Z,99.90
2018-06-16T18:48:39.550Z,99.90
2018-06-16T18:51:08.511Z,99.90
2018-06-16T18:53:37.446Z,99.90
2018-06-16T18:58:35.068Z,99.90
2018-06-16T19:01:04.026Z,99.20
2018-06-16T19:03:32.842Z,98.30
2018-06-16T19:06:01.827Z,97.50
2018-06-16T19:08:30.854Z,97.40
2018-06-16T19:10:59.899Z,96.60
2018-06-16T19:13:29.066Z,97.10
2018-06-16T19:15:58.136Z,97.20
2018-06-16T19:18:27.199Z,97.60
2018-06-16T19:20:56.323Z,97.20
2018-06-16T19:23:25.571Z,97.20
2018-06-16T19:25:54.651Z,96.30
2018-06-16T19:28:23.712Z,96.50
2018-06-16T19:30:52.838Z,96.30
2018-06-16T19:33:21.816Z,96.20
2018-06-16T19:35:50.858Z,95.40
2018-06-16T19:38:19.831Z,96.00
2018-06-16T19:40:48.967Z,96.80
2018-06-16T19:43:17.988Z,95.80
2018-06-16T19:45:47.000Z,96.40
2018-06-16T19:48:15.947Z,97.50
2018-06-16T19:50:45.100Z,97.50
2018-06-16T19:53:14.012Z,97.90
2018-06-16T19:55:43.139Z,98.50
2018-06-16T19:58:12.175Z,98.80
2018-06-16T20:00:41.337Z,97.60
2018-06-16T20:03:10.496Z,98.20
2018-06-16T20:05:39.449Z,97.90
2018-06-16T20:08:08.607Z,98.20
2018-06-16T20:10:37.615Z,99.00
2018-06-16T20:13:06.647Z,99.10
2018-06-16T20:15:35.719Z,98.50
2018-06-16T20:18:04.755Z,98.50
2018-06-16T20:20:33.969Z,98.20
2018-06-16T20:23:03.104Z,97.60
2018-06-16T20:25:32.269Z,97.60
2018-06-16T20:28:01.507Z,97.80
2018-06-16T20:30:30.675Z,97.90
2018-06-16T20:32:59.860Z,98.20
2018-06-16T20:35:29.230Z,98.30
2018-06-16T20:37:58.339Z,98.90
2018-06-16T20:40:27.868Z,99.20
2018-06-16T20:42:57.213Z,98.80
2018-06-16T20:45:26.340Z,98.80
2018-06-16T20:47:55.600Z,98.80
2018-06-16T20:50:24.738Z,98.80
2018-06-16T20:52:53.790Z,99.10
2018-06-16T20:57:51.394Z,98.80
2018-06-16T21:00:20.284Z,99.10
2018-06-16T21:02:49.529Z,99.30
2018-06-16T21:05:18.514Z,99.10
2018-06-16T21:07:47.483Z,99.90
2018-06-16T21:10:16.526Z,99.90
2018-06-16T21:12:45.508Z,99.90
2018-06-16T21:15:14.652Z,99.90
2018-06-16T21:17:43.618Z,99.30
2018-06-16T21:20:12.669Z,99.90
2018-06-16T21:22:41.626Z,99.90
2018-06-16T21:25:10.670Z,99.90
2018-06-16T21:27:39.655Z,99.90
2018-06-16T21:30:08.897Z,99.90
2018-06-16T21:32:37.859Z,99.90
2018-06-16T21:35:06.887Z,99.90
2018-06-16T21:37:35.990Z,99.90
2018-06-16T21:40:05.303Z,99.90
2018-06-16T21:42:35.168Z,99.90
2018-06-16T21:45:04.668Z,99.90
2018-06-16T21:47:33.873Z,99.90
2018-06-16T21:50:02.963Z,99.90
2018-06-16T21:52:32.013Z,99.90
2018-06-16T21:55:01.066Z,99.90
2018-06-16T21:57:30.362Z,99.90
2018-06-16T21:59:59.586Z,99.90
2018-06-16T22:02:28.776Z,99.90
2018-06-16T22:04:58.327Z,99.90
2018-06-16T22:07:27.461Z,99.90
2018-06-16T22:09:56.443Z,99.90
2018-06-16T22:12:25.480Z,99.90
2018-06-16T22:14:54.614Z,99.90
2018-06-16T22:17:23.667Z,99.90
2018-06-16T22:19:52.723Z,99.90
2018-06-16T22:22:21.679Z,99.90
2018-06-16T22:24:50.640Z,99.90
2018-06-16T22:27:19.791Z,99.90
2018-06-16T22:29:48.935Z,99.90
2018-06-16T22:32:18.019Z,99.90
2018-06-16T22:34:46.951Z,99.90
2018-06-16T22:37:16.120Z,99.90
2018-06-16T22:39:45.301Z,99.90
2018-06-16T22:42:14.347Z,99.90
2018-06-16T22:44:43.331Z,99.90
2018-06-16T22:47:12.302Z,99.90
2018-06-16T22:49:41.350Z,99.90
2018-06-16T22:52:10.538Z,99.90
2018-06-16T22:54:39.795Z,99.90
2018-06-16T22:57:08.765Z,99.90
2018-06-16T22:59:37.896Z,99.90
2018-06-16T23:02:10.658Z,99.90
2018-06-16T23:04:39.680Z,99.90
2018-06-16T23:07:08.721Z,99.90
2018-06-16T23:09:38.026Z,99.90
2018-06-16T23:12:07.099Z,99.90
2018-06-16T23:14:36.119Z,99.90
2018-06-16T23:19:33.744Z,99.90
2018-06-16T23:22:02.907Z,99.90
2018-06-16T23:24:31.956Z,99.90
2018-06-16T23:27:01.047Z,99.90
2018-06-16T23:29:30.189Z,99.90
2018-06-16T23:31:59.514Z,99.90
2018-06-16T23:34:28.702Z,99.90
2018-06-16T23:36:58.015Z,99.90
2018-06-16T23:39:27.208Z,98.00
2018-06-16T23:41:56.468Z,99.90
2018-06-16T23:44:25.735Z,99.90
2018-06-16T23:46:54.956Z,99.90
2018-06-16T23:49:23.976Z,97.10
2018-06-16T23:51:52.926Z,99.90
2018-06-16T23:54:21.886Z,98.00
2018-06-16T23:56:50.938Z,96.10
2018-06-16T23:59:19.899Z,99.90
